createdAt,value
2023-10-15T00:00:28.464Z,82.00
2023-10-15T00:02:55.693Z,82.00
2023-10-15T00:05:26.644Z,82.10
2023-10-15T00:07:54.224Z,82.20
2023-10-15T00:10:23.376Z,82.30
2023-10-15T00:12:52.642Z,82.40
2023-10-15T00:15:21.094Z,82.30
2023-10-15T00:17:52.839Z,82.40
2023-10-15T00:20:21.484Z,82.50
2023-10-15T00:22:52.437Z,82.40
2023-10-15T00:25:21.006Z,82.50
2023-10-15T00:27:54.278Z,82.50
2023-10-15T00:30:22.548Z,82.50
2023-10-15T00:32:53.545Z,82.60
2023-10-15T00:35:21.327Z,82.70
2023-10-15T00:37:57.970Z,82.70
2023-10-15T00:40:26.979Z,82.70
2023-10-15T00:42:55.504Z,83.00
2023-10-15T00:45:22.432Z,83.20
2023-10-15T00:48:07.078Z,83.10
2023-10-15T00:50:43.380Z,83.20
2023-10-15T00:53:25.798Z,83.20
2023-10-15T00:56:06.376Z,83.20
2023-10-15T00:58:33.838Z,83.20
2023-10-15T01:01:21.955Z,83.20
2023-10-15T01:04:00.649Z,83.30
2023-10-15T01:06:35.581Z,83.20
2023-10-15T01:09:11.987Z,84.00
2023-10-15T01:11:52.664Z,84.70
2023-10-15T01:14:33.284Z,84.90
2023-10-15T01:17:01.655Z,85.60
2023-10-15T01:19:33.863Z,85.90
2023-10-15T01:22:05.020Z,85.80
2023-10-15T01:24:39.273Z,85.40
2023-10-15T01:27:09.316Z,85.50
2023-10-15T01:29:42.718Z,85.60
2023-10-15T01:32:20.788Z,85.60
2023-10-15T01:34:50.569Z,85.30
2023-10-15T01:37:25.857Z,85.20
2023-10-15T01:40:02.105Z,84.90
2023-10-15T01:42:29.454Z,84.80
2023-10-15T01:45:09.900Z,84.80
2023-10-15T01:47:37.855Z,84.70
2023-10-15T01:50:11.383Z,85.40
2023-10-15T01:52:41.492Z,84.90
2023-10-15T01:55:08.782Z,84.90
2023-10-15T01:57:40.366Z,84.90
2023-10-15T02:00:15.834Z,84.80
2023-10-15T02:02:46.546Z,84.80
2023-10-15T02:05:42.179Z,84.80
2023-10-15T02:08:14.815Z,84.90
2023-10-15T02:10:47.481Z,84.80
2023-10-15T02:13:18.824Z,84.80
2023-10-15T02:15:50.457Z,84.90
2023-10-15T02:18:20.484Z,84.80
2023-10-15T02:21:01.672Z,85.00
2023-10-15T02:23:34.241Z,85.20
2023-10-15T02:26:01.535Z,85.30
2023-10-15T02:28:37.134Z,85.30
2023-10-15T02:31:04.369Z,85.40
2023-10-15T02:33:31.943Z,85.60
2023-10-15T02:36:00.866Z,85.60
2023-10-15T02:38:35.186Z,85.70
2023-10-15T02:41:07.070Z,85.70
2023-10-15T02:43:41.819Z,85.60
2023-10-15T02:46:23.978Z,85.60
2023-10-15T02:48:56.482Z,85.60
2023-10-15T02:51:27.897Z,85.60
2023-10-15T02:54:02.475Z,85.50
2023-10-15T02:56:29.714Z,85.60
2023-10-15T02:58:57.787Z,85.60
2023-10-15T03:01:26.078Z,85.40
2023-10-15T03:03:56.248Z,85.40
2023-10-15T03:06:32.855Z,85.40
2023-10-15T03:09:00.738Z,85.40
2023-10-15T03:11:39.430Z,85.30
2023-10-15T03:14:07.915Z,85.50
2023-10-15T03:16:36.301Z,85.60
2023-10-15T03:19:20.752Z,85.50
2023-10-15T03:21:48.848Z,85.50
2023-10-15T03:24:17.319Z,85.60
2023-10-15T03:26:48.652Z,85.60
2023-10-15T03:29:16.176Z,85.60
2023-10-15T03:31:50.071Z,85.70
2023-10-15T03:34:24.128Z,85.70
2023-10-15T03:36:52.644Z,85.70
2023-10-15T03:39:43.557Z,85.70
2023-10-15T03:42:11.253Z,85.70
2023-10-15T03:44:46.727Z,85.70
2023-10-15T03:47:23.257Z,85.80
2023-10-15T03:49:52.457Z,85.90
2023-10-15T03:52:23.560Z,85.80
2023-10-15T03:54:51.635Z,85.70
2023-10-15T03:57:20.356Z,85.60
2023-10-15T03:59:53.995Z,85.60
2023-10-15T04:02:40.820Z,85.60
2023-10-15T04:05:13.504Z,85.60
2023-10-15T04:07:49.247Z,85.60
2023-10-15T04:10:24.464Z,85.40
2023-10-15T04:12:51.833Z,85.50
2023-10-15T04:15:18.874Z,85.50
2023-10-15T04:17:46.807Z,85.50
2023-10-15T04:20:27.439Z,85.60
2023-10-15T04:22:55.245Z,86.00
2023-10-15T04:25:26.296Z,85.60
2023-10-15T04:27:54.858Z,85.70
2023-10-15T04:30:22.408Z,85.80
2023-10-15T04:32:49.457Z,85.90
2023-10-15T04:35:19.863Z,85.90
2023-10-15T04:37:57.531Z,86.00
2023-10-15T04:40:25.009Z,85.90
2023-10-15T04:42:52.307Z,85.90
2023-10-15T04:45:43.140Z,85.90
2023-10-15T04:48:16.891Z,86.00
2023-10-15T04:50:44.898Z,85.90
2023-10-15T04:53:24.848Z,85.90
2023-10-15T04:55:53.767Z,85.90
2023-10-15T04:58:21.756Z,85.90
2023-10-15T05:00:50.128Z,85.90
2023-10-15T05:03:18.101Z,85.90
2023-10-15T05:05:45.962Z,86.00
2023-10-15T05:08:13.808Z,86.10
2023-10-15T05:10:51.117Z,86.10
2023-10-15T05:13:19.112Z,86.20
2023-10-15T05:15:46.375Z,86.10
2023-10-15T05:18:15.960Z,86.10
2023-10-15T05:20:44.361Z,86.30
2023-10-15T05:23:11.642Z,85.90
2023-10-15T05:25:42.227Z,86.80
2023-10-15T05:28:10.336Z,86.00
2023-10-15T05:30:39.007Z,86.00
2023-10-15T05:33:07.483Z,85.90
2023-10-15T05:35:35.858Z,86.00
2023-10-15T05:38:03.094Z,85.90
2023-10-15T05:40:31.075Z,86.00
2023-10-15T05:42:58.158Z,86.00
2023-10-15T05:45:25.287Z,86.10
2023-10-15T05:47:52.507Z,86.00
2023-10-15T05:50:19.974Z,86.00
2023-10-15T05:52:49.223Z,85.90
2023-10-15T05:55:16.220Z,86.00
2023-10-15T05:57:44.513Z,86.10
2023-10-15T06:00:21.358Z,86.10
2023-10-15T06:02:52.105Z,86.00
2023-10-15T06:05:19.171Z,86.10
2023-10-15T06:07:47.498Z,86.00
2023-10-15T06:10:15.382Z,86.00
2023-10-15T06:12:43.662Z,86.00
2023-10-15T06:15:21.905Z,86.10
2023-10-15T06:17:51.624Z,86.10
2023-10-15T06:20:18.704Z,86.20
2023-10-15T06:22:47.709Z,86.30
2023-10-15T06:25:18.803Z,86.20
2023-10-15T06:27:46.660Z,86.30
2023-10-15T06:30:20.064Z,86.30
2023-10-15T06:32:51.366Z,86.30
2023-10-15T06:35:19.919Z,86.30
2023-10-15T06:37:51.542Z,86.30
2023-10-15T06:40:23.786Z,86.20
2023-10-15T06:42:53.421Z,86.30
2023-10-15T06:45:21.441Z,86.30
2023-10-15T06:47:53.183Z,86.30
2023-10-15T06:50:24.743Z,86.30
2023-10-15T06:52:53.958Z,86.30
2023-10-15T06:55:21.819Z,86.40
2023-10-15T06:57:49.984Z,86.40
2023-10-15T07:00:27.508Z,86.40
2023-10-15T07:02:57.486Z,86.50
2023-10-15T07:05:27.019Z,86.50
2023-10-15T07:07:59.043Z,86.70
2023-10-15T07:10:39.376Z,86.80
2023-10-15T07:13:07.455Z,86.70
2023-10-15T07:15:37.999Z,86.80
2023-10-15T07:18:05.648Z,86.70
2023-10-15T07:20:32.666Z,86.80
2023-10-15T07:23:02.797Z,86.70
2023-10-15T07:25:29.888Z,86.80
2023-10-15T07:27:58.627Z,86.80
2023-10-15T07:30:26.721Z,86.80
2023-10-15T07:32:55.712Z,86.80
2023-10-15T07:35:25.332Z,86.90
2023-10-15T07:37:53.224Z,86.90
2023-10-15T07:40:27.139Z,86.90
2023-10-15T07:43:00.876Z,86.90
2023-10-15T07:45:30.915Z,86.90
2023-10-15T07:48:02.644Z,87.00
2023-10-15T07:50:31.735Z,87.00
2023-10-15T07:52:59.099Z,87.10
2023-10-15T07:55:27.130Z,87.10
2023-10-15T07:57:54.580Z,87.20
2023-10-15T08:00:25.161Z,87.30
2023-10-15T08:03:00.490Z,87.30
2023-10-15T08:05:38.968Z,87.40
2023-10-15T08:08:07.017Z,87.60
2023-10-15T08:10:36.374Z,87.70
2023-10-15T08:13:05.161Z,87.90
2023-10-15T08:15:34.728Z,87.80
2023-10-15T08:18:03.144Z,87.90
2023-10-15T08:20:30.395Z,88.00
2023-10-15T08:22:57.274Z,88.00
2023-10-15T08:25:24.202Z,88.20
2023-10-15T08:27:51.227Z,88.10
2023-10-15T08:30:19.030Z,88.20
2023-10-15T08:32:47.556Z,88.10
2023-10-15T08:35:16.866Z,88.10
2023-10-15T08:37:44.844Z,88.10
2023-10-15T08:40:20.801Z,87.90
2023-10-15T08:42:58.362Z,88.00
2023-10-15T08:45:26.733Z,88.10
2023-10-15T08:47:54.597Z,88.20
2023-10-15T08:50:23.729Z,88.70
2023-10-15T08:52:55.007Z,88.80
2023-10-15T08:55:24.093Z,88.70
2023-10-15T08:57:58.057Z,88.50
2023-10-15T09:00:32.269Z,88.60
2023-10-15T09:03:01.961Z,88.50
2023-10-15T09:05:35.133Z,88.30
2023-10-15T09:08:08.790Z,88.30
2023-10-15T09:10:37.792Z,88.60
2023-10-15T09:13:06.255Z,88.60
2023-10-15T09:15:33.453Z,88.60
2023-10-15T09:18:01.127Z,88.60
2023-10-15T09:20:29.102Z,88.70
2023-10-15T09:23:02.967Z,88.80
2023-10-15T09:25:31.609Z,88.80
2023-10-15T09:28:01.961Z,88.90
2023-10-15T09:30:33.203Z,89.00
2023-10-15T09:33:00.225Z,88.40
2023-10-15T09:35:27.187Z,88.20
2023-10-15T09:37:57.345Z,88.10
2023-10-15T09:40:32.435Z,88.30
2023-10-15T09:43:00.887Z,88.30
2023-10-15T09:45:31.834Z,88.10
2023-10-15T09:47:59.243Z,88.00
2023-10-15T09:50:29.324Z,88.10
2023-10-15T09:52:57.998Z,88.00
2023-10-15T09:55:30.316Z,88.00
2023-10-15T09:57:59.442Z,87.90
2023-10-15T10:00:47.458Z,87.80
2023-10-15T10:03:48.980Z,87.70
2023-10-15T10:06:16.717Z,88.00
2023-10-15T10:08:59.645Z,88.30
2023-10-15T10:11:39.677Z,88.20
2023-10-15T10:14:49.669Z,86.10
2023-10-15T10:17:19.366Z,85.90
2023-10-15T10:19:53.447Z,86.40
2023-10-15T10:22:30.482Z,86.80
2023-10-15T10:25:01.095Z,86.90
2023-10-15T10:27:28.336Z,86.60
2023-10-15T10:30:31.897Z,86.00
2023-10-15T10:32:59.453Z,86.00
2023-10-15T10:35:28.080Z,85.40
2023-10-15T10:38:07.026Z,85.60
2023-10-15T10:40:58.040Z,85.80
2023-10-15T10:43:27.225Z,85.70
2023-10-15T10:45:55.818Z,86.00
2023-10-15T10:48:32.737Z,86.20
2023-10-15T10:51:16.666Z,85.60
2023-10-15T10:53:59.035Z,85.80
2023-10-15T10:56:46.309Z,85.50
2023-10-15T10:59:16.779Z,85.50
2023-10-15T11:01:49.847Z,85.80
2023-10-15T11:04:17.468Z,85.70
2023-10-15T11:06:50.097Z,85.70
2023-10-15T11:09:17.186Z,85.80
2023-10-15T11:11:45.549Z,85.80
2023-10-15T11:14:14.045Z,85.90
2023-10-15T11:16:43.739Z,85.60
2023-10-15T11:19:17.783Z,85.00
2023-10-15T11:21:48.362Z,85.20
2023-10-15T11:24:18.752Z,85.00
2023-10-15T11:26:46.849Z,84.70
2023-10-15T11:29:23.233Z,84.00
2023-10-15T11:31:55.029Z,82.70
2023-10-15T11:34:23.993Z,82.20
2023-10-15T11:36:53.212Z,81.90
2023-10-15T11:39:26.939Z,82.40
2023-10-15T11:41:57.724Z,82.70
2023-10-15T11:44:32.661Z,82.70
2023-10-15T11:47:10.308Z,83.00
2023-10-15T11:49:44.028Z,82.90
2023-10-15T11:52:18.224Z,80.50
2023-10-15T11:54:50.539Z,79.90
2023-10-15T11:57:22.390Z,79.30
2023-10-15T11:59:56.399Z,79.10
2023-10-15T12:02:25.405Z,79.60
2023-10-15T12:04:57.655Z,79.10
2023-10-15T12:07:24.481Z,80.40
2023-10-15T12:09:52.862Z,79.90
2023-10-15T12:12:20.053Z,78.50
2023-10-15T12:14:47.357Z,77.20
2023-10-15T12:17:17.236Z,77.90
2023-10-15T12:19:46.187Z,78.40
2023-10-15T12:22:17.494Z,78.50
2023-10-15T12:24:44.630Z,78.40
2023-10-15T12:27:12.492Z,78.70
2023-10-15T12:29:40.653Z,78.40
2023-10-15T12:32:12.029Z,78.90
2023-10-15T12:34:39.201Z,78.20
2023-10-15T12:37:09.623Z,78.60
2023-10-15T12:39:41.537Z,78.70
2023-10-15T12:42:10.377Z,76.80
2023-10-15T12:44:40.487Z,76.50
2023-10-15T12:47:11.446Z,77.20
2023-10-15T12:49:38.520Z,76.90
2023-10-15T12:52:09.519Z,74.50
2023-10-15T12:54:37.281Z,74.60
2023-10-15T12:57:07.088Z,75.40
2023-10-15T12:59:37.290Z,75.90
2023-10-15T13:02:05.696Z,76.50
2023-10-15T13:04:32.812Z,76.30
2023-10-15T13:06:59.860Z,76.60
2023-10-15T13:09:33.908Z,76.60
2023-10-15T13:12:02.537Z,75.60
2023-10-15T13:14:29.815Z,75.80
2023-10-15T13:16:58.386Z,76.20
2023-10-15T13:19:25.556Z,75.70
2023-10-15T13:21:52.694Z,74.90
2023-10-15T13:24:19.675Z,73.30
2023-10-15T13:26:48.015Z,73.80
2023-10-15T13:29:15.845Z,74.30
2023-10-15T13:31:42.918Z,73.90
2023-10-15T13:34:10.820Z,73.90
2023-10-15T13:36:38.804Z,74.60
2023-10-15T13:39:08.149Z,74.60
2023-10-15T13:41:35.686Z,74.10
2023-10-15T13:44:02.894Z,73.90
2023-10-15T13:46:29.988Z,74.00
2023-10-15T13:48:56.976Z,72.70
2023-10-15T13:51:26.146Z,70.40
2023-10-15T13:53:53.396Z,70.50
2023-10-15T13:56:21.202Z,71.30
2023-10-15T13:58:48.528Z,71.20
2023-10-15T14:01:17.034Z,71.60
2023-10-15T14:03:45.564Z,72.10
2023-10-15T14:06:13.496Z,72.50
2023-10-15T14:08:40.390Z,72.90
2023-10-15T14:11:08.724Z,73.10
2023-10-15T14:13:35.759Z,73.10
2023-10-15T14:16:04.342Z,73.30
2023-10-15T14:18:34.382Z,73.40
2023-10-15T14:21:04.593Z,74.00
2023-10-15T14:23:31.894Z,73.40
2023-10-15T14:26:01.766Z,72.50
2023-10-15T14:28:28.876Z,72.90
2023-10-15T14:30:55.989Z,72.50
2023-10-15T14:33:23.087Z,72.70
2023-10-15T14:35:54.145Z,72.80
2023-10-15T14:38:21.968Z,72.90
2023-10-15T14:40:49.167Z,72.50
2023-10-15T14:43:16.284Z,72.90
2023-10-15T14:45:46.777Z,73.00
2023-10-15T14:48:20.913Z,71.90
2023-10-15T14:50:48.669Z,70.50
2023-10-15T14:53:15.855Z,70.70
2023-10-15T14:55:49.256Z,70.70
2023-10-15T14:58:21.000Z,70.70
2023-10-15T15:00:51.078Z,70.40
2023-10-15T15:03:22.566Z,70.80
2023-10-15T15:05:52.701Z,70.00
2023-10-15T15:08:20.197Z,70.40
2023-10-15T15:10:49.585Z,70.90
2023-10-15T15:13:16.876Z,71.10
2023-10-15T15:15:44.302Z,70.90
2023-10-15T15:18:11.430Z,70.90
2023-10-15T15:20:38.491Z,71.20
2023-10-15T15:23:05.607Z,71.30
2023-10-15T15:25:32.706Z,71.60
2023-10-15T15:27:59.867Z,72.90
2023-10-15T15:30:27.421Z,73.80
2023-10-15T15:32:55.062Z,74.90
2023-10-15T15:35:22.819Z,76.00
2023-10-15T15:37:49.999Z,76.50
2023-10-15T15:40:17.194Z,76.50
2023-10-15T15:42:44.429Z,76.60
2023-10-15T15:45:14.062Z,76.60
2023-10-15T15:47:41.606Z,76.70
2023-10-15T15:50:14.082Z,76.60
2023-10-15T15:52:46.017Z,76.60
2023-10-15T15:55:13.244Z,76.60
2023-10-15T15:57:40.687Z,76.50
2023-10-15T16:00:09.698Z,76.30
2023-10-15T16:02:38.677Z,76.10
2023-10-15T16:05:06.791Z,76.10
2023-10-15T16:07:34.470Z,76.10
2023-10-15T16:10:02.796Z,76.20
2023-10-15T16:12:33.566Z,76.20
2023-10-15T16:15:02.296Z,76.10
2023-10-15T16:17:29.348Z,76.10
2023-10-15T16:19:56.480Z,76.10
2023-10-15T16:22:23.754Z,76.10
2023-10-15T16:25:00.665Z,76.20
2023-10-15T16:27:33.204Z,76.20
2023-10-15T16:29:59.963Z,76.30
2023-10-15T16:32:40.190Z,76.40
2023-10-15T16:35:31.577Z,76.40
2023-10-15T16:37:59.113Z,76.50
2023-10-15T16:40:26.320Z,77.30
2023-10-15T16:42:53.230Z,76.50
2023-10-15T16:45:20.784Z,76.50
2023-10-15T16:47:53.411Z,76.60
2023-10-15T16:50:23.794Z,76.80
2023-10-15T16:52:53.892Z,76.90
2023-10-15T16:55:21.202Z,77.00
2023-10-15T16:57:50.984Z,77.20
2023-10-15T17:00:24.258Z,77.30
2023-10-15T17:02:54.560Z,77.40
2023-10-15T17:05:21.980Z,77.50
2023-10-15T17:07:49.051Z,77.40
2023-10-15T17:10:16.802Z,77.50
2023-10-15T17:12:44.156Z,77.60
2023-10-15T17:15:14.414Z,77.70
2023-10-15T17:17:55.318Z,77.60
2023-10-15T17:20:26.050Z,78.60
2023-10-15T17:23:08.348Z,77.60
2023-10-15T17:25:39.107Z,77.60
2023-10-15T17:28:06.823Z,77.60
2023-10-15T17:30:36.998Z,77.60
2023-10-15T17:33:04.904Z,77.60
2023-10-15T17:35:32.804Z,77.60
2023-10-15T17:38:00.277Z,77.60
2023-10-15T17:40:27.696Z,77.70
2023-10-15T17:42:55.030Z,77.70
2023-10-15T17:45:26.298Z,78.50
2023-10-15T17:48:04.153Z,77.60
2023-10-15T17:51:05.241Z,77.70
2023-10-15T17:57:51.095Z,77.60
2023-10-15T17:59:22.424Z,77.70
2023-10-15T18:06:01.110Z,78.00
2023-10-15T18:08:13.210Z,77.70
2023-10-15T18:09:02.271Z,78.10
2023-10-15T18:12:11.472Z,78.10
2023-10-15T18:15:26.715Z,78.10
2023-10-15T18:18:51.118Z,78.00
2023-10-15T18:21:18.401Z,78.20
2023-10-15T18:23:45.672Z,78.20
2023-10-15T18:26:12.971Z,78.20
2023-10-15T18:28:39.833Z,78.20
2023-10-15T18:31:07.192Z,78.30
2023-10-15T18:33:34.556Z,78.30
2023-10-15T18:36:01.575Z,78.40
2023-10-15T18:38:28.787Z,78.30
2023-10-15T18:40:56.678Z,78.40
2023-10-15T18:43:25.029Z,78.40
2023-10-15T18:45:52.285Z,78.40
2023-10-15T18:48:24.493Z,78.50
2023-10-15T18:50:54.441Z,78.60
2023-10-15T18:53:30.595Z,78.70
2023-10-15T18:55:58.626Z,78.70
2023-10-15T18:58:28.402Z,78.70
2023-10-15T19:01:05.653Z,78.70
2023-10-15T19:03:33.456Z,78.70
2023-10-15T19:06:02.617Z,78.80
2023-10-15T19:08:31.284Z,78.80
2023-10-15T19:11:01.464Z,78.80
2023-10-15T19:13:30.807Z,78.90
2023-10-15T19:16:02.918Z,79.00
2023-10-15T19:18:32.417Z,79.10
2023-10-15T19:21:02.657Z,79.10
2023-10-15T19:23:29.948Z,79.20
2023-10-15T19:26:07.242Z,79.30
2023-10-15T19:28:40.877Z,79.20
2023-10-15T19:31:09.153Z,79.30
2023-10-15T19:33:46.561Z,79.50
2023-10-15T19:49:52.960Z,79.70
2023-10-15T20:36:15.650Z,80.10
2023-10-15T20:46:38.081Z,80.00
2023-10-15T20:50:01.045Z,80.10
2023-10-15T20:53:05.650Z,80.10
2023-10-15T21:04:45.396Z,80.40
2023-10-15T21:07:34.680Z,80.70
2023-10-15T21:10:06.751Z,80.70
2023-10-15T21:12:42.987Z,80.60
2023-10-15T21:15:27.309Z,80.60
2023-10-15T21:18:02.966Z,80.70
2023-10-15T21:20:30.163Z,80.60
2023-10-15T21:22:57.116Z,80.60
2023-10-15T21:25:24.206Z,80.60
2023-10-15T21:27:52.307Z,80.60
2023-10-15T21:30:22.155Z,80.60
2023-10-15T21:32:49.851Z,80.60
2023-10-15T21:35:17.165Z,80.70
2023-10-15T21:37:44.056Z,80.70
2023-10-15T21:40:16.179Z,80.90
2023-10-15T21:42:47.801Z,81.00
2023-10-15T21:45:15.074Z,81.00
2023-10-15T21:47:43.809Z,81.00
2023-10-15T21:50:13.993Z,81.00
2023-10-15T21:52:40.765Z,81.10
2023-10-15T21:55:08.498Z,81.10
2023-10-15T21:57:35.390Z,81.00
2023-10-15T22:00:05.086Z,81.00
2023-10-15T22:02:38.811Z,81.10
2023-10-15T22:05:06.330Z,81.20
2023-10-15T22:07:33.130Z,81.20
2023-10-15T22:09:59.948Z,81.40
2023-10-15T22:12:28.265Z,81.50
2023-10-15T22:14:55.274Z,81.50
2023-10-15T22:17:22.411Z,81.50
2023-10-15T22:19:49.361Z,81.70
2023-10-15T22:22:18.989Z,81.60
2023-10-15T22:24:46.196Z,81.70
2023-10-15T22:27:16.024Z,81.80
2023-10-15T22:29:45.961Z,81.70
2023-10-15T22:32:13.282Z,81.70
2023-10-15T22:34:40.432Z,81.70
2023-10-15T22:37:07.572Z,81.70
2023-10-15T22:39:38.486Z,81.70
2023-10-15T22:42:12.827Z,81.70
2023-10-15T22:44:46.057Z,81.70
2023-10-15T22:47:16.654Z,81.70
2023-10-15T22:49:43.836Z,81.90
2023-10-15T22:52:11.307Z,81.90
2023-10-15T22:54:38.389Z,82.00
2023-10-15T22:57:05.368Z,81.90
2023-10-15T22:59:32.761Z,82.00
2023-10-15T23:02:00.788Z,81.90
2023-10-15T23:04:28.626Z,82.00
2023-10-15T23:06:55.932Z,82.10
2023-10-15T23:09:23.133Z,82.10
2023-10-15T23:11:50.500Z,82.20
2023-10-15T23:14:17.415Z,82.30
2023-10-15T23:16:46.324Z,82.30
2023-10-15T23:19:17.125Z,82.30
2023-10-15T23:21:49.761Z,82.30
2023-10-15T23:24:17.538Z,82.30
2023-10-15T23:26:44.469Z,82.30
2023-10-15T23:29:11.217Z,82.40
2023-10-15T23:31:40.462Z,82.40
2023-10-15T23:34:10.141Z,82.40
2023-10-15T23:36:37.224Z,82.40
2023-10-15T23:39:06.339Z,82.50
2023-10-15T23:41:35.270Z,82.50
2023-10-15T23:44:02.360Z,82.60
2023-10-15T23:46:29.224Z,82.60
2023-10-15T23:49:00.536Z,82.50
2023-10-15T23:51:29.896Z,82.60
2023-10-15T23:53:56.955Z,82.60
2023-10-15T23:56:33.251Z,82.60
2023-10-15T23:59:03.563Z,82.70
